Mount Union, Pennsylvania
Current Conditions -  °F | °C
As of 6:53 PM on Saturday 22 Nov 2014 (Local Time) from KAOO Reporting Station
Broken Clouds Broken Clouds  
Wind Chill: 43°   Ceiling: 7500
Heat Index: 43°   Visibility: 10mi
Dew Point: 26°   Wind: 3mph
Humidity: 51%   Direction: 220°SW
Pressure: 30.17"   Gusts: NA
Location:  40.38°N, 77.88°W
Report Text: KAOO 222353Z AUTO 22003KT 10SM BKN075 BKN100 06/M03 A3017 RMK AO2 SLP233 60000 T00611033 10072 20050 56008
Loading
Personal Weather Stations






























Interactive Weather Map New forecast layout! Learn more

10-Day Weather Forecast

Advertisements
Track Severe Weather on mobile